createdAt,value
2023-06-25T00:00:32.323Z,9.90
2023-06-25T00:02:59.633Z,8.50
2023-06-25T00:05:26.988Z,8.50
2023-06-25T00:07:54.167Z,9.05
2023-06-25T00:10:21.400Z,9.35
2023-06-25T00:12:48.581Z,8.68
2023-06-25T00:15:15.799Z,8.50
2023-06-25T00:17:48.568Z,9.00
2023-06-25T00:20:16.958Z,8.00
2023-06-25T00:22:54.019Z,7.95
2023-06-25T00:25:27.586Z,8.70
2023-06-25T00:27:59.206Z,9.95
2023-06-25T00:30:26.499Z,9.63
2023-06-25T00:32:57.886Z,8.55
2023-06-25T00:35:28.563Z,8.20
2023-06-25T00:38:02.616Z,7.97
2023-06-25T00:40:29.933Z,8.50
2023-06-25T00:43:00.317Z,8.77
2023-06-25T00:45:27.887Z,9.23
2023-06-25T00:47:56.072Z,9.07
2023-06-25T00:50:26.274Z,8.25
2023-06-25T00:52:53.676Z,8.90
2023-06-25T00:55:21.443Z,8.88
2023-06-25T00:57:48.722Z,8.05
2023-06-25T01:00:17.953Z,8.38
2023-06-25T01:02:45.486Z,9.10
2023-06-25T01:05:18.743Z,8.63
2023-06-25T01:07:46.638Z,9.15
2023-06-25T01:10:14.494Z,8.85
2023-06-25T01:12:43.791Z,9.80
2023-06-25T01:15:11.119Z,9.50
2023-06-25T01:17:40.884Z,9.32
2023-06-25T01:20:12.789Z,9.38
2023-06-25T01:22:41.897Z,10.07
2023-06-25T01:25:09.685Z,9.43
2023-06-25T01:27:37.487Z,10.27
2023-06-25T01:30:07.244Z,9.25
2023-06-25T01:32:34.552Z,9.50
2023-06-25T01:35:01.755Z,9.68
2023-06-25T01:37:32.184Z,9.70
2023-06-25T01:39:59.531Z,10.73
2023-06-25T01:42:26.854Z,10.15
2023-06-25T01:44:54.102Z,10.10
2023-06-25T01:47:21.402Z,9.85
2023-06-25T01:49:48.638Z,10.15
2023-06-25T01:52:15.911Z,10.25
2023-06-25T01:54:43.315Z,9.55
2023-06-25T01:57:10.598Z,9.18
2023-06-25T01:59:37.732Z,10.10
2023-06-25T02:02:05.008Z,9.20
2023-06-25T02:04:32.233Z,9.68
2023-06-25T02:06:59.513Z,10.35
2023-06-25T02:09:26.870Z,8.95
2023-06-25T02:11:54.089Z,10.35
2023-06-25T02:14:21.315Z,10.02
2023-06-25T02:16:48.500Z,10.85
2023-06-25T02:19:15.734Z,10.10
2023-06-25T02:21:42.906Z,9.98
2023-06-25T02:24:10.217Z,9.98
2023-06-25T02:26:37.394Z,10.02
2023-06-25T02:29:04.576Z,10.38
2023-06-25T02:31:31.861Z,10.88
2023-06-25T02:33:59.263Z,11.43
2023-06-25T02:36:26.460Z,10.77
2023-06-25T02:38:53.620Z,10.93
2023-06-25T02:41:20.819Z,10.38
2023-06-25T02:43:48.093Z,11.20
2023-06-25T02:46:15.325Z,10.98
2023-06-25T02:48:43.990Z,10.48
2023-06-25T02:51:11.980Z,9.40
2023-06-25T02:53:39.239Z,10.73
2023-06-25T02:56:06.567Z,10.35
2023-06-25T02:58:33.773Z,10.48
2023-06-25T03:01:03.051Z,10.30
2023-06-25T03:03:30.390Z,10.93
2023-06-25T03:06:00.328Z,10.65
2023-06-25T03:08:27.554Z,11.18
2023-06-25T03:10:54.740Z,10.07
2023-06-25T03:13:22.001Z,11.05
2023-06-25T03:15:49.248Z,10.45
2023-06-25T03:18:16.387Z,11.75
2023-06-25T03:20:43.576Z,11.68
2023-06-25T03:23:10.784Z,11.75
2023-06-25T03:25:38.130Z,10.68
2023-06-25T03:28:05.526Z,12.07
2023-06-25T03:30:32.754Z,11.52
2023-06-25T03:33:02.419Z,11.40
2023-06-25T03:35:29.633Z,12.32
2023-06-25T03:37:56.837Z,11.75
2023-06-25T03:40:24.070Z,11.85
2023-06-25T03:42:51.234Z,11.55
2023-06-25T03:45:18.488Z,11.68
2023-06-25T03:47:45.745Z,10.23
2023-06-25T03:50:12.989Z,10.85
2023-06-25T03:52:40.356Z,10.27
2023-06-25T03:55:07.759Z,10.57
2023-06-25T03:57:35.035Z,10.55
2023-06-25T04:00:02.298Z,10.15
2023-06-25T04:02:29.596Z,10.40
2023-06-25T04:04:56.781Z,10.90
2023-06-25T04:07:24.110Z,10.48
2023-06-25T04:09:51.359Z,10.77
2023-06-25T04:12:18.529Z,10.35
2023-06-25T04:14:45.706Z,11.50
2023-06-25T04:17:12.928Z,11.30
2023-06-25T04:19:40.150Z,10.70
2023-06-25T04:22:07.359Z,11.45
2023-06-25T04:24:34.577Z,10.43
2023-06-25T04:27:01.775Z,11.40
2023-06-25T04:29:29.425Z,10.25
2023-06-25T04:31:56.955Z,10.60
2023-06-25T04:34:24.214Z,11.63
2023-06-25T04:36:51.457Z,9.70
2023-06-25T04:39:18.687Z,10.38
2023-06-25T04:41:45.920Z,9.90
2023-06-25T04:44:13.126Z,9.65
2023-06-25T04:46:40.309Z,9.82
2023-06-25T04:49:07.601Z,9.63
2023-06-25T04:51:35.838Z,8.57
2023-06-25T04:54:03.310Z,8.90
2023-06-25T04:56:30.582Z,8.50
2023-06-25T04:58:57.808Z,7.35
2023-06-25T05:01:25.064Z,7.60
2023-06-25T05:03:52.305Z,7.60
2023-06-25T05:06:19.503Z,7.13
2023-06-25T05:08:46.731Z,6.88
2023-06-25T05:11:13.920Z,5.82
2023-06-25T05:13:41.176Z,5.47
2023-06-25T05:16:08.514Z,5.50
2023-06-25T05:18:35.780Z,4.78
2023-06-25T05:21:02.971Z,5.03
2023-06-25T05:23:38.911Z,4.85
2023-06-25T05:26:06.327Z,4.38
2023-06-25T05:28:35.122Z,4.90
2023-06-25T05:31:02.491Z,4.72
2023-06-25T05:33:29.654Z,4.28
2023-06-25T05:35:56.858Z,4.28
2023-06-25T05:38:24.040Z,4.40
2023-06-25T05:40:51.310Z,4.28
2023-06-25T05:43:18.486Z,3.88
2023-06-25T05:45:45.683Z,4.45
2023-06-25T05:48:12.969Z,3.72
2023-06-25T05:50:40.210Z,4.43
2023-06-25T05:53:07.444Z,4.25
2023-06-25T05:55:34.796Z,3.90
2023-06-25T05:58:02.144Z,4.07
2023-06-25T06:00:29.614Z,3.97
2023-06-25T06:02:56.918Z,4.30
2023-06-25T06:05:24.240Z,4.40
2023-06-25T06:07:51.428Z,4.10
2023-06-25T06:10:18.718Z,3.97
2023-06-25T06:12:45.921Z,3.85
2023-06-25T06:15:13.144Z,3.80
2023-06-25T06:17:40.370Z,3.63
2023-06-25T06:20:07.764Z,3.83
2023-06-25T06:22:35.020Z,4.00
2023-06-25T06:25:02.244Z,3.70
2023-06-25T06:27:29.422Z,4.13
2023-06-25T06:29:56.575Z,3.67
2023-06-25T06:32:23.844Z,3.70
2023-06-25T06:34:51.063Z,3.80
2023-06-25T06:37:18.293Z,4.05
2023-06-25T06:39:47.741Z,3.53
2023-06-25T06:42:15.147Z,3.72
2023-06-25T06:44:42.278Z,3.70
2023-06-25T06:47:09.443Z,3.70
2023-06-25T06:49:36.597Z,3.55
2023-06-25T06:52:04.027Z,3.80
2023-06-25T06:54:31.450Z,3.50
2023-06-25T06:56:58.630Z,3.50
2023-06-25T06:59:25.794Z,3.58
2023-06-25T07:01:53.009Z,3.80
2023-06-25T07:04:20.253Z,4.05
2023-06-25T07:06:47.438Z,3.90
2023-06-25T07:09:14.782Z,3.60
2023-06-25T07:11:41.931Z,3.45
2023-06-25T07:14:09.095Z,3.78
2023-06-25T07:16:36.292Z,3.78
2023-06-25T07:19:04.081Z,3.55
2023-06-25T07:21:31.252Z,3.13
2023-06-25T07:23:58.451Z,3.13
2023-06-25T07:26:25.700Z,3.63
2023-06-25T07:28:52.982Z,3.53
2023-06-25T07:31:20.232Z,3.20
2023-06-25T07:33:47.515Z,3.17
2023-06-25T07:36:15.121Z,2.97
2023-06-25T07:38:42.387Z,3.20
2023-06-25T07:41:09.544Z,3.08
2023-06-25T07:43:36.871Z,2.70
2023-06-25T07:46:04.152Z,2.75
2023-06-25T07:48:31.391Z,2.58
2023-06-25T07:50:58.633Z,2.53
2023-06-25T07:53:25.814Z,2.90
2023-06-25T07:56:02.751Z,2.40
2023-06-25T07:58:31.495Z,2.42
2023-06-25T08:00:58.887Z,2.83
2023-06-25T08:03:26.620Z,2.50
2023-06-25T08:05:53.978Z,2.80
2023-06-25T08:08:21.157Z,2.70
2023-06-25T08:10:52.541Z,2.97
2023-06-25T08:13:19.795Z,2.60
2023-06-25T08:15:47.829Z,2.60
2023-06-25T08:18:15.059Z,2.70
2023-06-25T08:20:42.223Z,2.75
2023-06-25T08:23:09.413Z,2.67
2023-06-25T08:25:37.051Z,2.35
2023-06-25T08:28:04.443Z,2.28
2023-06-25T08:30:32.107Z,2.10
2023-06-25T08:32:59.307Z,2.22
2023-06-25T08:35:26.467Z,2.20
2023-06-25T08:37:53.638Z,2.50
2023-06-25T08:40:20.885Z,2.33
2023-06-25T08:42:50.684Z,1.98
2023-06-25T08:45:18.728Z,2.40
2023-06-25T08:47:47.519Z,2.17
2023-06-25T08:50:14.798Z,2.25
2023-06-25T08:52:42.146Z,2.17
2023-06-25T08:55:12.813Z,2.30
2023-06-25T08:57:40.259Z,2.30
2023-06-25T09:00:08.489Z,2.50
2023-06-25T09:02:36.359Z,2.10
2023-06-25T09:05:14.809Z,2.63
2023-06-25T09:07:45.273Z,2.63
2023-06-25T09:10:12.628Z,2.38
2023-06-25T09:12:40.200Z,2.30
2023-06-25T09:15:07.760Z,2.70
2023-06-25T09:17:36.895Z,2.17
2023-06-25T09:20:07.540Z,2.40
2023-06-25T09:22:34.811Z,2.20
2023-06-25T09:25:02.210Z,2.05
2023-06-25T09:27:29.376Z,2.20
2023-06-25T09:29:59.691Z,2.35
2023-06-25T09:32:26.917Z,2.50
2023-06-25T09:34:54.199Z,2.08
2023-06-25T09:37:22.026Z,2.13
2023-06-25T09:39:49.297Z,2.28
2023-06-25T09:42:20.274Z,2.70
2023-06-25T09:44:49.968Z,2.17
2023-06-25T09:47:18.252Z,2.28
2023-06-25T09:49:45.502Z,1.90
2023-06-25T09:52:16.804Z,2.20
2023-06-25T09:54:44.735Z,1.90
2023-06-25T09:57:16.194Z,2.30
2023-06-25T09:59:43.724Z,2.22
2023-06-25T10:02:11.100Z,1.92
2023-06-25T10:04:38.854Z,2.13
2023-06-25T10:07:07.000Z,2.08
2023-06-25T10:09:34.266Z,2.10
2023-06-25T10:12:01.583Z,2.30
2023-06-25T10:14:38.981Z,2.15
2023-06-25T10:17:07.291Z,2.08
2023-06-25T10:19:34.509Z,2.30
2023-06-25T10:22:16.414Z,2.13
2023-06-25T10:24:44.345Z,2.20
2023-06-25T10:27:26.964Z,2.20
2023-06-25T10:29:55.095Z,2.00
2023-06-25T10:32:23.079Z,1.75
2023-06-25T10:34:54.831Z,1.98
2023-06-25T10:37:22.447Z,1.80
2023-06-25T10:39:49.665Z,2.30
2023-06-25T10:42:16.848Z,1.90
2023-06-25T10:44:44.071Z,1.90
2023-06-25T10:47:12.024Z,2.17
2023-06-25T10:49:39.460Z,2.38
2023-06-25T10:52:06.976Z,2.13
2023-06-25T10:54:34.488Z,2.20
2023-06-25T10:57:14.870Z,2.42
2023-06-25T10:59:46.061Z,2.50
2023-06-25T11:02:23.065Z,2.03
2023-06-25T11:04:52.337Z,2.13
2023-06-25T11:07:20.789Z,2.22
2023-06-25T11:09:52.157Z,2.35
2023-06-25T11:12:19.639Z,2.35
2023-06-25T11:14:52.728Z,2.25
2023-06-25T11:17:20.490Z,2.28
2023-06-25T11:19:54.506Z,2.25
2023-06-25T11:22:22.154Z,2.40
2023-06-25T11:24:50.646Z,2.40
2023-06-25T11:27:28.178Z,2.35
2023-06-25T11:29:55.716Z,2.35
2023-06-25T11:32:27.826Z,2.58
2023-06-25T11:34:57.021Z,2.20
2023-06-25T11:37:24.366Z,2.33
2023-06-25T11:39:52.696Z,2.25
2023-06-25T11:42:21.190Z,2.33
2023-06-25T11:44:59.843Z,2.30
2023-06-25T11:47:27.238Z,2.78
2023-06-25T11:49:55.634Z,2.38
2023-06-25T11:52:23.037Z,2.63
2023-06-25T11:54:50.315Z,2.63
2023-06-25T11:57:18.563Z,2.60
2023-06-25T11:59:46.057Z,2.88
2023-06-25T12:02:13.405Z,2.53
2023-06-25T12:04:40.953Z,2.53
2023-06-25T12:07:08.572Z,2.63
2023-06-25T12:09:36.449Z,3.05
2023-06-25T12:12:03.697Z,3.17
2023-06-25T12:14:30.927Z,2.83
2023-06-25T12:16:58.409Z,2.80
2023-06-25T12:19:25.699Z,2.58
2023-06-25T12:21:52.931Z,2.80
2023-06-25T12:24:20.166Z,3.00
2023-06-25T12:26:47.533Z,2.70
2023-06-25T12:29:14.690Z,2.65
2023-06-25T12:31:42.000Z,3.08
2023-06-25T16:46:04.994Z,2.78
2023-06-25T16:48:32.205Z,2.83
2023-06-25T16:50:59.486Z,2.60
2023-06-25T16:53:26.696Z,2.90
2023-06-25T16:55:53.897Z,2.88
2023-06-25T16:58:21.108Z,2.97
2023-06-25T17:00:48.384Z,3.08
2023-06-25T17:03:15.739Z,3.08
2023-06-25T17:05:44.035Z,3.00
2023-06-25T17:08:11.323Z,3.20
2023-06-25T17:10:38.610Z,2.90
2023-06-25T17:13:05.864Z,3.28
2023-06-25T17:15:33.017Z,2.90
2023-06-25T17:18:00.249Z,3.00
2023-06-25T17:20:27.471Z,3.20
2023-06-25T17:22:54.703Z,3.13
2023-06-25T17:25:21.942Z,2.92
2023-06-25T17:27:49.174Z,2.67
2023-06-25T17:30:16.342Z,3.00
2023-06-25T17:32:43.549Z,3.30
2023-06-25T17:35:10.977Z,2.70
2023-06-25T17:37:38.226Z,3.30
2023-06-25T17:40:05.774Z,3.00
2023-06-25T17:42:33.159Z,2.80
2023-06-25T17:45:00.401Z,3.17
2023-06-25T17:47:29.414Z,3.20
2023-06-25T17:49:56.721Z,3.25
2023-06-25T17:52:24.043Z,3.38
2023-06-25T17:54:51.315Z,2.80
2023-06-25T17:57:18.597Z,3.30
2023-06-25T17:59:45.839Z,3.33
2023-06-25T18:02:13.083Z,3.20
2023-06-25T18:04:43.686Z,2.88
2023-06-25T18:07:12.579Z,2.90
2023-06-25T18:09:39.827Z,3.08
2023-06-25T18:12:07.419Z,2.83
2023-06-25T18:14:34.957Z,2.92
2023-06-25T18:17:02.272Z,3.17
2023-06-25T18:19:29.844Z,2.63
2023-06-25T18:21:57.054Z,2.80
2023-06-25T18:24:24.474Z,3.17
2023-06-25T18:26:51.754Z,2.85
2023-06-25T18:29:19.048Z,3.08
2023-06-25T18:31:46.747Z,2.80
2023-06-25T18:34:17.631Z,3.13
2023-06-25T18:36:46.642Z,3.20
2023-06-25T18:39:14.583Z,3.58
2023-06-25T18:41:41.843Z,3.35
2023-06-25T18:44:09.101Z,3.47
2023-06-25T18:46:37.790Z,3.22
2023-06-25T18:49:05.075Z,3.58
2023-06-25T18:51:32.360Z,3.22
2023-06-25T18:53:59.557Z,3.58
2023-06-25T18:56:27.096Z,3.42
2023-06-25T18:58:54.306Z,3.55
2023-06-25T19:01:21.550Z,3.50
2023-06-25T19:03:49.374Z,3.75
2023-06-25T19:06:16.666Z,3.50
2023-06-25T19:08:44.066Z,3.58
2023-06-25T19:11:11.340Z,3.92
2023-06-25T19:13:38.570Z,3.45
2023-06-25T19:16:05.989Z,3.70
2023-06-25T19:18:33.301Z,3.58
2023-06-25T19:21:00.732Z,3.80
2023-06-25T19:23:30.350Z,4.13
2023-06-25T19:26:01.983Z,3.65
2023-06-25T19:28:29.660Z,3.50
2023-06-25T19:30:56.897Z,4.20
2023-06-25T19:33:24.206Z,4.03
2023-06-25T19:35:51.399Z,3.60
2023-06-25T19:38:18.624Z,3.95
2023-06-25T19:40:45.808Z,4.30
2023-06-25T19:43:14.926Z,4.00
2023-06-25T19:45:42.853Z,3.92
2023-06-25T19:48:10.271Z,5.18
2023-06-25T19:50:37.761Z,4.82
2023-06-25T19:53:05.272Z,4.55
2023-06-25T19:55:32.502Z,4.57
2023-06-25T19:57:59.757Z,4.95
2023-06-25T20:00:27.046Z,4.47
2023-06-25T20:02:54.431Z,4.60
2023-06-25T20:05:21.757Z,4.55
2023-06-25T20:07:50.018Z,4.53
2023-06-25T20:10:20.214Z,4.10
2023-06-25T20:12:50.367Z,4.22
2023-06-25T20:15:18.632Z,4.30
2023-06-25T20:17:45.966Z,4.85
2023-06-25T20:20:13.427Z,4.78
2023-06-25T20:22:40.700Z,4.80
2023-06-25T20:25:08.054Z,4.55
2023-06-25T20:27:35.313Z,4.50
2023-06-25T20:30:02.550Z,4.47
2023-06-25T20:32:29.829Z,4.38
2023-06-25T20:34:57.116Z,4.60
2023-06-25T20:37:24.341Z,4.53
2023-06-25T20:39:51.548Z,4.50
2023-06-25T20:42:18.770Z,4.85
2023-06-25T20:44:45.970Z,4.55
2023-06-25T20:47:14.812Z,4.57
2023-06-25T20:49:42.796Z,4.93
2023-06-25T20:52:10.321Z,4.65
2023-06-25T20:54:38.233Z,4.25
2023-06-25T20:57:05.643Z,4.43
2023-06-25T20:59:32.954Z,4.70
2023-06-25T21:02:00.129Z,5.28
2023-06-25T21:04:27.315Z,4.95
2023-06-25T21:06:54.607Z,4.93
2023-06-25T21:09:21.868Z,4.85
2023-06-25T21:11:49.068Z,4.78
2023-06-25T21:14:16.242Z,5.10
2023-06-25T21:16:43.451Z,5.22
2023-06-25T21:19:10.659Z,5.07
2023-06-25T21:21:37.974Z,5.00
2023-06-25T21:24:05.431Z,5.25
2023-06-25T21:26:32.742Z,5.25
2023-06-25T21:28:59.999Z,5.07
2023-06-25T21:31:27.350Z,5.40
2023-06-25T21:33:54.556Z,5.57
2023-06-25T21:36:21.767Z,5.55
2023-06-25T21:38:48.963Z,5.30
2023-06-25T21:41:16.253Z,5.20
2023-06-25T21:43:43.527Z,5.35
2023-06-25T21:46:10.740Z,5.35
2023-06-25T21:48:38.144Z,5.35
2023-06-25T21:51:05.301Z,5.00
2023-06-25T21:53:35.561Z,5.13
2023-06-25T21:56:03.603Z,5.57
2023-06-25T21:58:30.859Z,5.38
2023-06-25T22:00:58.347Z,5.32
2023-06-25T22:03:25.639Z,5.20
2023-06-25T22:05:52.871Z,5.45
2023-06-25T22:08:20.099Z,5.85
2023-06-25T22:10:47.304Z,5.47
2023-06-25T22:13:18.626Z,5.65
2023-06-25T22:15:46.699Z,6.00
2023-06-25T22:18:14.043Z,5.25
2023-06-25T22:20:41.315Z,5.65
2023-06-25T22:23:08.538Z,5.97
2023-06-25T22:25:35.790Z,6.00
2023-06-25T22:28:03.529Z,5.35
2023-06-25T22:30:31.292Z,5.40
2023-06-25T22:32:58.554Z,6.22
2023-06-25T22:35:26.199Z,6.03
2023-06-25T22:37:53.927Z,6.00
2023-06-25T22:40:21.383Z,5.90
2023-06-25T22:42:48.715Z,5.53
2023-06-25T22:45:15.959Z,5.75
2023-06-25T22:47:43.541Z,5.82
2023-06-25T22:50:11.639Z,6.70
2023-06-25T22:52:40.379Z,5.72
2023-06-25T22:55:08.465Z,5.90
2023-06-25T22:57:35.788Z,6.00
2023-06-25T23:00:04.464Z,5.75
2023-06-25T23:02:31.887Z,6.03
2023-06-25T23:04:59.171Z,5.93
2023-06-25T23:07:26.589Z,6.18
2023-06-25T23:09:53.917Z,5.75
2023-06-25T23:12:21.158Z,6.05
2023-06-25T23:14:48.404Z,6.63
2023-06-25T23:17:15.677Z,6.22
2023-06-25T23:19:42.837Z,5.97
2023-06-25T23:22:14.120Z,6.43
2023-06-25T23:24:42.627Z,6.13
2023-06-25T23:27:10.235Z,6.10
2023-06-25T23:29:38.282Z,6.88
2023-06-25T23:32:06.721Z,6.85
2023-06-25T23:34:34.396Z,6.68
2023-06-25T23:37:02.287Z,6.13
2023-06-25T23:39:29.926Z,7.75
2023-06-25T23:41:57.140Z,6.40
2023-06-25T23:44:24.351Z,6.95
2023-06-25T23:46:51.554Z,6.78
2023-06-25T23:49:18.774Z,7.05
2023-06-25T23:51:45.945Z,6.75
2023-06-25T23:54:13.157Z,7.35
2023-06-25T23:56:40.797Z,7.10
2023-06-25T23:59:08.102Z,7.10
